createdAt,value
2022-09-10T00:00:01.946Z,100873.88
2022-09-10T00:02:42.760Z,100882.19
2022-09-10T00:05:15.418Z,100880.09
2022-09-10T00:07:47.858Z,100859.75
2022-09-10T00:10:20.411Z,100895.84
2022-09-10T00:12:52.886Z,100896.25
2022-09-10T00:15:25.254Z,100902.47
2022-09-10T00:17:57.570Z,100907.66
2022-09-10T00:20:29.952Z,100906.19
2022-09-10T00:23:04.332Z,100913.25
2022-09-10T00:25:37.089Z,100914.47
2022-09-10T00:28:10.197Z,100925.09
2022-09-10T00:30:47.170Z,100936.13
2022-09-10T00:33:21.902Z,100937.59
2022-09-10T00:35:54.824Z,100944.66
2022-09-10T00:38:31.750Z,100939.63
2022-09-10T00:41:08.454Z,100955.25
2022-09-10T00:43:58.793Z,100871.78
2022-09-10T00:46:51.597Z,100893.81
2022-09-10T00:49:39.612Z,100974.38
2022-09-10T00:52:13.937Z,100968.53
2022-09-10T00:54:48.705Z,100840.81
2022-09-10T00:57:25.184Z,100982.25
2022-09-10T01:00:11.681Z,100923.69
2022-09-10T01:02:46.274Z,100988.88
2022-09-10T01:05:21.452Z,100990.13
2022-09-10T01:07:54.735Z,100991.78
2022-09-10T01:10:33.265Z,100970.38
2022-09-10T01:13:42.876Z,100996.81
2022-09-10T01:16:24.484Z,101007.16
2022-09-10T01:19:25.919Z,100993.06
2022-09-10T01:22:35.328Z,101004.25
2022-09-10T01:25:19.648Z,101009.03
2022-09-10T01:27:57.687Z,101002.94
2022-09-10T01:30:39.376Z,100940.50
2022-09-10T01:33:11.510Z,101011.69
2022-09-10T01:35:54.098Z,100928.00
2022-09-10T01:38:33.771Z,100868.38
2022-09-10T01:41:06.711Z,101015.63
2022-09-10T01:43:45.270Z,101018.09
2022-09-10T01:47:06.852Z,101014.78
2022-09-10T01:49:47.995Z,101011.69
2022-09-10T01:52:49.399Z,101018.78
2022-09-10T01:55:43.334Z,101006.19
2022-09-10T01:58:19.385Z,101014.50
2022-09-10T02:01:21.887Z,100996.25
2022-09-10T02:04:01.353Z,100988.53
2022-09-10T02:06:39.270Z,100936.75
2022-09-10T02:09:13.946Z,100943.81
2022-09-10T02:11:54.914Z,101023.56
2022-09-10T02:14:58.612Z,101011.13
2022-09-10T02:17:52.290Z,101019.38
2022-09-10T02:20:25.786Z,101013.56
2022-09-10T02:23:00.581Z,100989.06
2022-09-10T02:25:35.692Z,101003.34
2022-09-10T02:28:09.210Z,101027.84
2022-09-10T02:30:42.694Z,101022.22
2022-09-10T02:33:17.957Z,101019.06
2022-09-10T02:35:51.492Z,101024.28
2022-09-10T02:38:25.742Z,101002.03
2022-09-10T02:41:00.960Z,101020.91
2022-09-10T02:43:33.424Z,101028.84
2022-09-10T02:46:10.521Z,101030.06
2022-09-10T02:48:43.409Z,101027.34
2022-09-10T02:51:16.378Z,101025.88
2022-09-10T02:53:48.861Z,101007.34
2022-09-10T02:56:25.448Z,101009.59
2022-09-10T02:58:57.970Z,101022.06
2022-09-10T03:02:27.383Z,101020.66
2022-09-10T03:05:19.903Z,101003.81
2022-09-10T03:07:52.418Z,101012.03
2022-09-10T03:10:29.095Z,101021.75
2022-09-10T03:13:02.143Z,101017.75
2022-09-10T03:15:34.568Z,101006.91
2022-09-10T03:18:07.321Z,101001.66
2022-09-10T03:20:41.052Z,100997.31
2022-09-10T03:23:14.079Z,100996.41
2022-09-10T03:25:49.913Z,100997.63
2022-09-10T03:28:29.865Z,100971.81
2022-09-10T03:31:02.659Z,100985.88
2022-09-10T03:33:42.481Z,100992.13
2022-09-10T03:36:15.339Z,100985.44
2022-09-10T03:38:49.998Z,100970.50
2022-09-10T03:41:23.780Z,100981.22
2022-09-10T03:43:59.211Z,100974.75
2022-09-10T03:46:32.675Z,100967.44
2022-09-10T03:49:09.954Z,100966.78
2022-09-10T03:51:43.138Z,100942.63
2022-09-10T03:54:15.922Z,100960.91
2022-09-10T03:56:49.005Z,100945.19
2022-09-10T03:59:21.459Z,100940.38
2022-09-10T04:01:53.789Z,100942.28
2022-09-10T04:04:26.271Z,100931.78
2022-09-10T04:06:58.567Z,100932.59
2022-09-10T04:09:30.895Z,100930.88
2022-09-10T04:12:05.336Z,100933.59
2022-09-10T04:14:39.752Z,100927.94
2022-09-10T04:17:12.132Z,100924.16
2022-09-10T04:19:46.500Z,100916.53
2022-09-10T04:22:18.840Z,100864.25
2022-09-10T04:24:51.388Z,100910.06
2022-09-10T04:27:28.470Z,100855.78
2022-09-10T04:30:01.374Z,100900.63
2022-09-10T04:32:33.951Z,100883.41
2022-09-10T04:35:08.147Z,100892.13
2022-09-10T04:37:41.157Z,100901.06
2022-09-10T04:40:15.745Z,100894.25
2022-09-10T04:42:48.184Z,100892.88
2022-09-10T04:45:21.695Z,100891.38
2022-09-10T04:47:55.975Z,100886.09
2022-09-10T04:50:28.904Z,100880.19
2022-09-10T04:53:24.339Z,100870.53
2022-09-10T04:55:57.919Z,100873.38
2022-09-10T04:58:34.189Z,100841.75
2022-09-10T05:01:09.467Z,100849.91
2022-09-10T05:03:43.300Z,100855.69
2022-09-10T05:06:16.502Z,100848.19
2022-09-10T05:08:52.524Z,100816.25
2022-09-10T05:11:25.435Z,100848.09
2022-09-10T05:14:00.475Z,100843.84
2022-09-10T05:16:35.223Z,100755.31
2022-09-10T05:19:09.254Z,100826.88
2022-09-10T05:21:50.559Z,100827.44
2022-09-10T05:24:23.046Z,100801.13
2022-09-10T05:26:57.051Z,100793.69
2022-09-10T05:29:31.038Z,100793.94
2022-09-10T05:32:04.330Z,100787.44
2022-09-10T05:34:41.661Z,100767.22
2022-09-10T05:37:14.200Z,100769.59
2022-09-10T05:39:51.192Z,100775.41
2022-09-10T05:42:25.163Z,100766.50
2022-09-10T05:44:57.691Z,100760.59
2022-09-10T05:47:31.941Z,100745.84
2022-09-10T05:50:07.039Z,100737.84
2022-09-10T05:52:45.109Z,100728.59
2022-09-10T05:55:17.763Z,100723.78
2022-09-10T05:57:51.862Z,100705.34
2022-09-10T06:00:27.219Z,100714.97
2022-09-10T06:03:07.681Z,100712.59
2022-09-10T06:05:53.294Z,100702.91
2022-09-10T06:08:30.076Z,100698.59
2022-09-10T06:11:12.224Z,100699.94
2022-09-10T06:13:49.448Z,100695.13
2022-09-10T06:16:22.989Z,100662.53
2022-09-10T06:18:55.932Z,100679.56
2022-09-10T06:21:30.633Z,100667.28
2022-09-10T06:24:04.350Z,100661.03
2022-09-10T06:26:40.498Z,100644.66
2022-09-10T06:29:16.951Z,100628.31
2022-09-10T06:31:50.240Z,100634.69
2022-09-10T06:34:23.002Z,100632.84
2022-09-10T06:36:57.127Z,100624.41
2022-09-10T06:39:31.619Z,100625.13
2022-09-10T06:42:06.359Z,100614.75
2022-09-10T06:45:02.031Z,100611.75
2022-09-10T06:48:38.254Z,100601.50
2022-09-10T06:51:01.923Z,100602.88
2022-09-10T06:53:42.147Z,100608.97
2022-09-10T06:56:17.524Z,100563.47
2022-09-10T06:58:50.636Z,100581.03
2022-09-10T07:01:25.570Z,100560.97
2022-09-10T07:04:02.998Z,100501.06
2022-09-10T07:06:38.137Z,100569.06
2022-09-10T07:09:16.815Z,100561.63
2022-09-10T07:12:16.209Z,100558.63
2022-09-10T07:14:49.526Z,100550.69
2022-09-10T07:17:26.009Z,100553.59
2022-09-10T07:20:01.295Z,100536.97
2022-09-10T07:22:47.543Z,100554.22
2022-09-10T07:25:23.373Z,100537.63
2022-09-10T07:28:06.040Z,100530.75
2022-09-10T07:30:43.257Z,100406.69
2022-09-10T07:33:17.304Z,100529.97
2022-09-10T07:35:50.642Z,100514.88
2022-09-10T07:38:24.435Z,100509.25
2022-09-10T07:40:56.934Z,100519.97
2022-09-10T07:43:31.373Z,100510.81
2022-09-10T07:46:04.502Z,100508.16
2022-09-10T07:48:39.113Z,100497.91
2022-09-10T07:51:13.295Z,100496.13
2022-09-10T07:53:50.550Z,100469.63
2022-09-10T07:56:27.505Z,100481.56
2022-09-10T07:59:00.665Z,100454.53
2022-09-10T08:01:35.882Z,100482.53
2022-09-10T08:04:09.061Z,100484.22
2022-09-10T08:06:43.769Z,100487.00
2022-09-10T08:09:16.900Z,100494.16
2022-09-10T08:11:55.874Z,100499.69
2022-09-10T08:14:31.687Z,100486.16
2022-09-10T08:17:04.017Z,100490.03
2022-09-10T08:19:40.087Z,100482.41
2022-09-10T08:22:13.793Z,100478.66
2022-09-10T08:24:51.998Z,100481.19
2022-09-10T08:27:24.511Z,100477.69
2022-09-10T08:29:59.703Z,100459.69
2022-09-10T08:32:33.411Z,100467.16
2022-09-10T08:35:06.667Z,100453.25
2022-09-10T08:37:39.796Z,100477.84
2022-09-10T08:40:14.064Z,100478.41
2022-09-10T08:42:52.076Z,100418.34
2022-09-10T08:45:36.665Z,100404.66
2022-09-10T08:48:21.212Z,100410.75
2022-09-10T08:51:29.145Z,100462.59
2022-09-10T08:54:27.150Z,100468.09
2022-09-10T08:57:02.409Z,100463.31
2022-09-10T08:59:42.314Z,100470.72
2022-09-10T09:02:47.348Z,100475.91
2022-09-10T09:05:21.469Z,100461.69
2022-09-10T09:08:01.232Z,100480.31
2022-09-10T09:10:52.079Z,100409.03
2022-09-10T09:13:54.324Z,100481.69
2022-09-10T09:16:29.909Z,100488.28
2022-09-10T09:19:11.647Z,100473.25
2022-09-10T09:21:53.713Z,100477.66
2022-09-10T09:24:35.316Z,100478.25
2022-09-10T09:27:14.064Z,100413.53
2022-09-10T09:29:57.644Z,100418.97
2022-09-10T09:32:35.989Z,100481.44
2022-09-10T09:35:30.141Z,100499.25
2022-09-10T09:38:25.371Z,100510.34
2022-09-10T09:41:08.399Z,100454.94
2022-09-10T09:44:02.273Z,100535.41
2022-09-10T09:46:36.152Z,100545.56
2022-09-10T09:49:19.213Z,100485.38
2022-09-10T09:51:53.484Z,100549.63
2022-09-10T09:55:03.253Z,100472.75
2022-09-10T09:57:24.054Z,100500.53
2022-09-10T09:59:56.908Z,100547.41
2022-09-10T10:02:32.099Z,100558.84
2022-09-10T10:05:24.561Z,100495.88
2022-09-10T10:07:56.972Z,100583.84
2022-09-10T10:10:30.322Z,100588.50
2022-09-10T10:13:02.719Z,100586.97
2022-09-10T10:15:42.692Z,100612.97
2022-09-10T10:18:33.478Z,100610.06
2022-09-10T10:21:32.433Z,100627.22
2022-09-10T10:24:05.749Z,100630.84
2022-09-10T10:26:39.865Z,100632.44
2022-09-10T10:29:23.059Z,100582.63
2022-09-10T10:31:57.823Z,100635.84
2022-09-10T10:34:30.139Z,100665.66
2022-09-10T10:37:27.531Z,100532.59
2022-09-10T10:40:08.468Z,100675.91
2022-09-10T10:43:09.161Z,100676.41
2022-09-10T10:46:10.003Z,100680.22
2022-09-10T10:49:11.877Z,100687.44
2022-09-10T10:51:58.078Z,100696.16
2022-09-10T10:54:44.578Z,100658.88
2022-09-10T10:57:38.109Z,100713.03
2022-09-10T11:00:20.242Z,100738.03
2022-09-10T11:03:28.437Z,100650.69
2022-09-10T11:06:09.927Z,100730.63
2022-09-10T11:08:45.575Z,100721.47
2022-09-10T11:11:33.398Z,100728.06
2022-09-10T11:14:29.009Z,100741.09
2022-09-10T11:17:22.024Z,100738.75
2022-09-10T11:20:29.683Z,100748.84
2022-09-10T11:23:23.388Z,100676.94
2022-09-10T11:26:15.188Z,100764.38
2022-09-10T11:29:01.074Z,100764.03
2022-09-10T11:31:39.753Z,100638.59
2022-09-10T11:34:19.785Z,100764.88
2022-09-10T11:37:17.477Z,100640.72
2022-09-10T11:39:54.201Z,100721.28
2022-09-10T11:42:42.482Z,100790.28
2022-09-10T11:45:30.371Z,100784.81
2022-09-10T11:48:26.229Z,100802.66
2022-09-10T11:51:04.761Z,100816.91
2022-09-10T11:53:38.867Z,100729.38
2022-09-10T11:56:51.047Z,100826.22
2022-09-10T11:59:44.118Z,100835.81
2022-09-10T12:02:39.006Z,100842.28
2022-09-10T12:05:39.166Z,100843.69
2022-09-10T12:08:19.259Z,100837.25
2022-09-10T12:11:07.657Z,100844.84
2022-09-10T12:13:44.618Z,100845.31
2022-09-10T12:16:20.840Z,100832.78
2022-09-10T12:18:57.011Z,100840.34
2022-09-10T12:21:50.425Z,100753.94
2022-09-10T12:24:35.482Z,100844.53
2022-09-10T12:27:09.573Z,100766.72
2022-09-10T12:29:45.897Z,100838.00
2022-09-10T12:32:30.290Z,100837.56
2022-09-10T12:35:48.908Z,100833.81
2022-09-10T12:38:52.086Z,100831.69
2022-09-10T12:41:27.325Z,100840.53
2022-09-10T12:44:00.314Z,100835.31
2022-09-10T12:46:34.472Z,100844.31
2022-09-10T12:49:12.858Z,100770.41
2022-09-10T12:52:00.763Z,100850.13
2022-09-10T12:55:11.068Z,100847.31
2022-09-10T12:57:52.517Z,100722.13
2022-09-10T13:00:27.444Z,100821.78
2022-09-10T13:03:21.562Z,100801.72
2022-09-10T13:05:57.435Z,100847.09
2022-09-10T13:08:43.298Z,100866.16
2022-09-10T13:11:22.985Z,100862.22
2022-09-10T13:14:06.480Z,100871.56
2022-09-10T13:16:45.280Z,100884.38
2022-09-10T13:19:21.167Z,100888.13
2022-09-10T13:21:56.480Z,100891.94
2022-09-10T13:24:37.900Z,100899.97
2022-09-10T13:27:24.423Z,100909.06
2022-09-10T13:30:18.298Z,100903.38
2022-09-10T13:33:05.908Z,100911.44
2022-09-10T13:36:07.246Z,100914.72
2022-09-10T13:38:49.855Z,100873.59
2022-09-10T13:42:15.838Z,100917.09
2022-09-10T13:44:48.183Z,100927.75
2022-09-10T13:47:29.829Z,100860.59
2022-09-10T13:50:24.056Z,100824.16
2022-09-10T13:53:01.849Z,100930.94
2022-09-10T13:55:35.786Z,100929.63
2022-09-10T13:58:20.056Z,100901.47
2022-09-10T14:00:58.986Z,100958.81
2022-09-10T14:03:39.944Z,100925.34
2022-09-10T14:06:29.739Z,100926.63
2022-09-10T14:09:07.371Z,100960.25
2022-09-10T14:11:44.443Z,100959.50
2022-09-10T14:14:26.815Z,100946.53
2022-09-10T14:17:14.565Z,100959.16
2022-09-10T14:19:53.639Z,101003.75
2022-09-10T14:22:29.469Z,100988.00
2022-09-10T14:25:04.407Z,101004.44
2022-09-10T14:27:43.283Z,100943.00
2022-09-10T14:30:29.503Z,101019.66
2022-09-10T14:33:34.772Z,101032.41
2022-09-10T14:36:26.662Z,101028.28
2022-09-10T14:39:06.565Z,101028.16
2022-09-10T14:41:41.210Z,101031.47
2022-09-10T14:44:26.029Z,101027.44
2022-09-10T14:47:24.979Z,100989.56
2022-09-10T14:50:38.721Z,101033.22
2022-09-10T14:53:11.117Z,101026.63
2022-09-10T14:55:43.605Z,101013.72
2022-09-10T14:58:19.079Z,101022.00
2022-09-10T15:00:54.970Z,101017.03
2022-09-10T15:03:28.295Z,101021.81
2022-09-10T15:06:03.828Z,101010.94
2022-09-10T15:08:40.195Z,101017.41
2022-09-10T15:11:17.843Z,101035.59
2022-09-10T15:13:56.837Z,100992.06
2022-09-10T15:16:29.917Z,101022.69
2022-09-10T15:19:13.524Z,101028.81
2022-09-10T15:21:46.027Z,101024.75
2022-09-10T15:24:25.023Z,101031.03
2022-09-10T15:26:59.502Z,101028.22
2022-09-10T15:29:35.035Z,101017.91
2022-09-10T15:32:10.485Z,101028.31
2022-09-10T15:34:45.065Z,101022.53
2022-09-10T15:37:20.237Z,101019.66
2022-09-10T15:39:53.391Z,101009.06
2022-09-10T15:42:25.788Z,100990.19
2022-09-10T15:44:58.202Z,101006.34
2022-09-10T15:47:35.058Z,101007.66
2022-09-10T15:50:08.104Z,100989.03
2022-09-10T15:52:40.890Z,100996.88
2022-09-10T15:55:14.235Z,101000.25
2022-09-10T15:57:47.061Z,100990.88
2022-09-10T16:00:20.677Z,100982.44
2022-09-10T16:02:55.593Z,100857.44
2022-09-10T16:05:28.239Z,100945.53
2022-09-10T16:08:00.859Z,100973.09
2022-09-10T16:10:34.033Z,100985.53
2022-09-10T16:13:06.379Z,100974.69
2022-09-10T16:15:39.909Z,100973.06
2022-09-10T16:18:12.669Z,100981.63
2022-09-10T16:20:45.182Z,100975.59
2022-09-10T16:23:18.849Z,100972.25
2022-09-10T16:25:58.873Z,100971.06
2022-09-10T16:28:32.049Z,100941.97
2022-09-10T16:31:43.773Z,100972.03
2022-09-10T16:34:21.530Z,100898.84
2022-09-10T16:36:54.692Z,100971.91
2022-09-10T16:39:27.064Z,100971.91
2022-09-10T16:41:59.459Z,100963.22
2022-09-10T16:44:34.028Z,100980.91
2022-09-10T16:47:06.587Z,100991.75
2022-09-10T16:49:39.005Z,100991.38
2022-09-10T16:52:11.322Z,100968.31
2022-09-10T16:54:43.733Z,100971.41
2022-09-10T16:57:16.054Z,100970.34
2022-09-10T16:59:49.875Z,100953.78
2022-09-10T17:02:22.290Z,100961.63
2022-09-10T17:04:57.050Z,100958.75
2022-09-10T17:07:29.512Z,100948.34
2022-09-10T17:10:01.856Z,100927.94
2022-09-10T17:12:35.369Z,100935.91
2022-09-10T17:15:08.780Z,100922.22
2022-09-10T17:17:41.584Z,100920.34
2022-09-10T17:20:14.516Z,100926.56
2022-09-10T17:22:47.762Z,100912.66
2022-09-10T17:25:20.223Z,100925.09
2022-09-10T17:27:52.515Z,100929.69
2022-09-10T17:30:25.743Z,100919.50
2022-09-10T17:32:58.158Z,100923.47
2022-09-10T17:35:30.533Z,100916.84
2022-09-10T17:38:03.392Z,100909.16
2022-09-10T17:40:35.857Z,100869.28
2022-09-10T17:43:08.800Z,100869.91
2022-09-10T17:45:41.138Z,100869.84
2022-09-10T17:48:13.407Z,100852.66
2022-09-10T17:50:53.333Z,100867.81
2022-09-10T17:53:25.802Z,100876.38
2022-09-10T17:56:04.866Z,100823.06
2022-09-10T17:58:37.802Z,100878.88
2022-09-10T18:01:23.499Z,100802.56
2022-09-10T18:03:56.393Z,100881.63
2022-09-10T18:06:30.552Z,100855.22
2022-09-10T18:09:03.955Z,100864.13
2022-09-10T18:11:39.762Z,100874.94
2022-09-10T18:14:19.244Z,100860.47
2022-09-10T18:16:53.035Z,100881.22
2022-09-10T18:19:26.005Z,100881.22
2022-09-10T18:21:58.302Z,100877.91
2022-09-10T18:24:30.807Z,100851.53
2022-09-10T18:27:06.289Z,100873.97
2022-09-10T18:29:40.534Z,100821.47
2022-09-10T18:32:16.669Z,100861.28
2022-09-10T18:34:49.034Z,100871.50
2022-09-10T18:37:21.490Z,100869.41
2022-09-10T18:39:55.341Z,100876.31
2022-09-10T18:42:28.952Z,100870.47
2022-09-10T18:45:01.527Z,100857.38
2022-09-10T18:47:44.476Z,100849.69
2022-09-10T18:50:17.228Z,100833.91
2022-09-10T18:52:49.978Z,100806.47
2022-09-10T18:55:22.420Z,100802.31
2022-09-10T18:57:55.261Z,100746.25
2022-09-10T19:00:27.592Z,100793.56
2022-09-10T19:02:59.929Z,100784.06
2022-09-10T19:05:33.098Z,100782.38
2022-09-10T19:08:05.466Z,100778.03
2022-09-10T19:10:37.869Z,100789.25
2022-09-10T19:13:12.340Z,100786.34
2022-09-10T19:15:45.662Z,100775.94
2022-09-10T19:18:18.256Z,100767.41
2022-09-10T19:20:51.219Z,100784.25
2022-09-10T19:23:23.589Z,100793.63
2022-09-10T19:25:57.910Z,100788.44
2022-09-10T19:28:37.714Z,100786.97
2022-09-10T19:31:13.079Z,100685.28
2022-09-10T19:33:45.898Z,100773.84
2022-09-10T19:36:21.935Z,100778.25
2022-09-10T19:38:54.662Z,100760.00
2022-09-10T19:41:27.535Z,100750.00
2022-09-10T19:44:00.230Z,100766.19
2022-09-10T19:46:32.659Z,100767.03
2022-09-10T19:49:08.144Z,100687.41
2022-09-10T19:51:42.287Z,100767.03
2022-09-10T19:54:15.610Z,100770.41
2022-09-10T19:56:47.999Z,100777.47
2022-09-10T19:59:20.317Z,100789.53
2022-09-10T20:01:52.709Z,100782.91
2022-09-10T20:04:27.208Z,100770.00
2022-09-10T20:06:59.630Z,100795.34
2022-09-10T20:09:31.881Z,100787.06
2022-09-10T20:12:05.120Z,100797.88
2022-09-10T20:14:37.461Z,100806.59
2022-09-10T20:17:10.025Z,100814.69
2022-09-10T20:19:42.587Z,100791.44
2022-09-10T20:22:15.423Z,100814.06
2022-09-10T20:24:47.730Z,100811.97
2022-09-10T20:27:20.093Z,100829.06
2022-09-10T20:29:53.078Z,100793.31
2022-09-10T20:32:27.012Z,100794.16
2022-09-10T20:34:59.664Z,100820.75
2022-09-10T20:37:32.003Z,100814.50
2022-09-10T20:40:04.635Z,100809.53
2022-09-10T20:42:37.392Z,100818.88
2022-09-10T20:45:10.548Z,100804.56
2022-09-10T20:47:44.767Z,100808.72
2022-09-10T20:50:17.532Z,100815.34
2022-09-10T20:52:49.958Z,100803.50
2022-09-10T20:55:22.291Z,100749.72
2022-09-10T20:57:55.058Z,100796.66
2022-09-10T21:00:27.369Z,100795.41
2022-09-10T21:02:59.895Z,100798.72
2022-09-10T21:05:32.491Z,100801.44
2022-09-10T21:08:06.571Z,100709.47
2022-09-10T21:10:39.732Z,100800.19
2022-09-10T21:13:12.062Z,100766.94
2022-09-10T21:15:45.011Z,100783.38
2022-09-10T21:18:17.749Z,100789.59
2022-09-10T21:20:50.093Z,100787.94
2022-09-10T21:23:22.373Z,100785.84
2022-09-10T21:25:54.768Z,100764.66
2022-09-10T21:28:28.857Z,100793.09
2022-09-10T21:31:15.634Z,100797.88
2022-09-10T21:33:48.040Z,100791.66
2022-09-10T21:36:22.030Z,100790.00
2022-09-10T21:39:00.491Z,100801.19
2022-09-10T21:41:41.582Z,100707.78
2022-09-10T21:44:17.436Z,100728.97
2022-09-10T21:46:50.839Z,100805.78
2022-09-10T21:49:23.391Z,100801.63
2022-09-10T21:51:55.779Z,100791.88
2022-09-10T21:54:28.104Z,100720.63
2022-09-10T21:57:07.577Z,100801.03
2022-09-10T21:59:40.147Z,100775.47
2022-09-10T22:02:27.135Z,100799.56
2022-09-10T22:05:05.386Z,100776.72
2022-09-10T22:07:38.125Z,100790.00
2022-09-10T22:10:11.009Z,100785.44
2022-09-10T22:12:49.219Z,100786.69
2022-09-10T22:15:28.338Z,100781.72
2022-09-10T22:18:18.925Z,100794.56
2022-09-10T22:21:04.488Z,100795.22
2022-09-10T22:24:03.732Z,100787.13
2022-09-10T22:27:18.670Z,100789.59
2022-09-10T22:29:54.111Z,100786.06
2022-09-10T22:32:49.274Z,100790.44
2022-09-10T22:35:50.119Z,100788.97
2022-09-10T22:38:40.641Z,100795.41
2022-09-10T22:41:45.243Z,100791.25
2022-09-10T22:44:46.661Z,100795.38
2022-09-10T22:48:23.013Z,100803.28
2022-09-10T22:51:01.537Z,100803.50
2022-09-10T22:54:23.572Z,100803.47
2022-09-10T22:57:27.337Z,100802.91
2022-09-10T23:00:18.571Z,100803.69
2022-09-10T23:03:49.332Z,100812.38
2022-09-10T23:07:25.232Z,100819.06
2022-09-10T23:10:01.738Z,100821.97
2022-09-10T23:12:34.190Z,100820.31
2022-09-10T23:15:07.554Z,100818.66
2022-09-10T23:17:40.790Z,100824.88
2022-09-10T23:20:13.986Z,100822.63
2022-09-10T23:22:46.300Z,100828.19
2022-09-10T23:25:21.475Z,100821.13
2022-09-10T23:27:54.232Z,100823.63
2022-09-10T23:30:26.578Z,100826.16
2022-09-10T23:32:58.961Z,100828.25
2022-09-10T23:35:31.458Z,100816.56
2022-09-10T23:38:03.852Z,100827.00
2022-09-10T23:40:36.303Z,100834.84
2022-09-10T23:43:08.575Z,100837.75
2022-09-10T23:45:41.783Z,100844.59
2022-09-10T23:48:14.401Z,100839.00
2022-09-10T23:50:47.314Z,100851.03
2022-09-10T23:53:20.331Z,100844.41
2022-09-10T23:55:53.719Z,100859.34
2022-09-10T23:58:26.936Z,100864.13
